Terminal Aerodrome Forecast
Issued by NWS Charleston, WV

Current Version | Previous Version | Graphics & Text | Print | Product List | Glossary On
Versions: 1 2 3 4 5 6 7 8 9 10 11 12 13 14 15 16 17 18 19 20 21 22 23 24 25 26
000
FTUS41 KRLX 192100 AAA
TAFHTS
TAF AMD
KHTS 192119Z 1921/2018 24004KT 6SM HZ SCT030
     FM192300 VRB03KT 6SM HZ SCT250
     FM200700 00000KT 4SM BR SCT035 BKN080
     FM200800 00000KT 2SM -SHRA BR VCTS BKN035CB
     FM201400 21004KT 4SM BR BKN025
     FM201600 21005KT 6SM HZ BKN030=

USA.gov is the U.S. government's official web portal to all federal, state and local government web resources and services.